Time;durP1;ratioP1;P1;durP2;ratioP2;P2;SDS_P1;SDS_P2;PMS_P1;PMS_P2;Temp;Humidity;BMP_temperature;BMP_pressure;BME280_temperature;BME280_humidity;BME280_pressure;Samples;Min_cycle;Max_cycle;Signal;HPM_P1;HPM_P2
2023/10/23 00:01:56;;;;;;;0.30;0.30;;;;;;;7.69;100.00;101112.09;5094925;28;20345;-57
2023/10/23 00:04:21;;;;;;;0.30;0.30;;;;;;;7.78;100.00;101121.91;5094597;28;20032;-57
2023/10/23 00:06:47;;;;;;;0.22;0.22;;;;;;;7.66;100.00;101117.09;5094444;28;20016;-57
2023/10/23 00:09:12;;;;;;;0.30;0.30;;;;;;;7.63;100.00;101116.94;5094728;28;20024;-57
2023/10/23 00:11:37;;;;;;;0.20;0.20;;;;;;;7.58;100.00;101122.75;5094863;28;20028;-57
2023/10/23 00:14:02;;;;;;;0.20;0.20;;;;;;;7.57;100.00;101123.53;5094036;28;20024;-57
2023/10/23 00:16:28;;;;;;;0.30;0.30;;;;;;;7.51;100.00;101122.38;5094433;28;20430;-57
2023/10/23 00:18:53;;;;;;;0.20;0.20;;;;;;;7.44;100.00;101116.09;5094641;28;20521;-57
2023/10/23 00:21:18;;;;;;;0.30;0.30;;;;;;;7.37;100.00;101114.94;5093814;28;20028;-57
2023/10/23 00:23:44;;;;;;;0.30;0.30;;;;;;;7.34;100.00;101124.16;5094701;28;20074;-57
2023/10/23 00:26:09;;;;;;;0.25;0.25;;;;;;;7.33;100.00;101124.97;5094672;28;20115;-57
2023/10/23 00:28:34;;;;;;;0.20;0.20;;;;;;;7.21;100.00;101126.13;5093813;28;20032;-57
2023/10/23 00:31:00;;;;;;;0.30;0.30;;;;;;;7.25;100.00;101125.47;5094363;28;20026;-57
2023/10/23 00:33:26;;;;;;;0.30;0.30;;;;;;;7.21;100.00;101126.13;5109352;28;20478;-57
2023/10/23 00:35:51;;;;;;;0.30;0.30;;;;;;;7.17;100.00;101123.38;5114726;28;20535;-57
2023/10/23 00:38:17;;;;;;;0.25;0.25;;;;;;;7.15;100.00;101123.28;5114364;28;20110;-58
2023/10/23 00:40:42;;;;;;;0.30;0.30;;;;;;;7.12;100.00;101128.25;5113748;28;20139;-57
2023/10/23 00:43:18;;;;;;;0.20;0.20;;;;;;;7.13;100.00;101130.03;5114563;28;20044;-57
2023/10/23 00:45:53;;;;;;;0.22;0.22;;;;;;;7.08;100.00;101131.50;5114447;28;20379;-57
2023/10/23 00:48:20;;;;;;;0.30;0.30;;;;;;;7.01;100.00;101129.41;5113364;28;20057;-57
2023/10/23 00:50:47;;;;;;;0.30;0.30;;;;;;;7.01;100.00;101130.31;5114555;28;20030;-57
2023/10/23 00:53:12;;;;;;;0.20;0.20;;;;;;;7.01;100.00;101119.16;5114152;28;20102;-57
2023/10/23 00:55:39;;;;;;;0.30;0.30;;;;;;;6.92;100.00;101127.31;5113655;28;20098;-57
2023/10/23 00:58:04;;;;;;;0.30;0.30;;;;;;;6.98;100.00;101129.28;5114366;28;20020;-57
2023/10/23 01:00:30;;;;;;;0.30;0.30;;;;;;;6.93;100.00;101129.03;5113840;28;20026;-57
2023/10/23 01:02:56;;;;;;;0.30;0.30;;;;;;;6.93;100.00;101131.59;5113535;28;20032;-57
2023/10/23 01:05:22;;;;;;;0.20;0.20;;;;;;;6.96;100.00;101133.44;5113927;28;20348;-57
2023/10/23 01:07:49;;;;;;;0.30;0.30;;;;;;;6.90;100.00;101136.59;5114272;28;20019;-57
2023/10/23 01:10:14;;;;;;;0.30;0.30;;;;;;;6.88;100.00;101133.97;5113008;28;20035;-57
2023/10/23 01:12:41;;;;;;;0.22;0.22;;;;;;;6.87;100.00;101141.59;5114070;28;20027;-57
2023/10/23 01:15:06;;;;;;;0.30;0.30;;;;;;;6.89;100.00;101145.09;5113868;28;20023;-57
2023/10/23 01:17:32;;;;;;;0.30;0.30;;;;;;;6.88;100.00;101151.91;5112726;28;20023;-57
2023/10/23 01:19:57;;;;;;;0.30;0.30;;;;;;;6.87;100.00;101152.69;5113919;28;20247;-57
2023/10/23 01:22:22;;;;;;;0.30;0.30;;;;;;;6.87;100.00;101141.59;5113388;28;20467;-57
2023/10/23 01:24:49;;;;;;;0.30;0.30;;;;;;;7.07;100.00;101143.41;5113084;28;20034;-57
2023/10/23 01:27:15;;;;;;;0.30;0.30;;;;;;;7.06;100.00;101148.47;5113492;28;20467;-57
2023/10/23 01:29:40;;;;;;;0.30;0.30;;;;;;;7.21;100.00;101148.34;5112890;28;20030;-57
2023/10/23 01:32:06;;;;;;;0.30;0.30;;;;;;;7.24;100.00;101149.38;5113896;28;20036;-57
2023/10/23 01:34:31;;;;;;;0.30;0.30;;;;;;;7.45;100.00;101147.75;5113559;28;20081;-57
2023/10/23 01:36:56;;;;;;;0.30;0.30;;;;;;;7.53;100.00;101147.28;5112944;28;20387;-57
2023/10/23 01:39:22;;;;;;;0.30;0.30;;;;;;;7.53;100.00;101137.03;5113218;28;20024;-57
2023/10/23 01:41:48;;;;;;;0.30;0.30;;;;;;;7.51;100.00;101133.50;5113231;28;20046;-57
2023/10/23 01:44:13;;;;;;;0.30;0.30;;;;;;;7.43;100.00;101139.09;5112005;28;20035;-57
2023/10/23 01:46:38;;;;;;;0.30;0.30;;;;;;;7.40;100.00;101132.16;5113591;28;20020;-57
2023/10/23 01:49:04;;;;;;;0.20;0.20;;;;;;;7.48;100.00;101138.50;5113395;28;20062;-57
2023/10/23 01:51:29;;;;;;;0.30;0.30;;;;;;;7.49;100.00;101136.81;5112389;28;20028;-57
2023/10/23 01:53:54;;;;;;;0.20;0.20;;;;;;;7.49;100.00;101140.28;5113477;28;20031;-57
2023/10/23 01:56:20;;;;;;;0.20;0.20;;;;;;;7.43;100.00;101137.41;5113140;28;20028;-57
2023/10/23 01:58:45;;;;;;;0.30;0.30;;;;;;;7.41;100.00;101136.44;5112598;28;20074;-57
2023/10/23 02:01:24;;;;;;;0.30;0.30;;;;;;;7.45;100.00;101145.16;5112884;28;20434;-57
2023/10/23 02:03:50;;;;;;;0.30;0.30;;;;;;;7.37;100.00;101140.59;5113356;28;20055;-57
2023/10/23 02:06:16;;;;;;;0.30;0.30;;;;;;;7.41;100.00;101134.78;5112214;28;20041;-57
2023/10/23 02:08:41;;;;;;;0.30;0.30;;;;;;;7.31;100.00;101141.94;5113369;28;20031;-57
2023/10/23 02:11:08;;;;;;;0.20;0.20;;;;;;;7.48;100.00;101137.63;5113294;28;20049;-57
2023/10/23 02:13:33;;;;;;;0.25;0.25;;;;;;;7.46;100.00;101134.97;5112039;28;20024;-57
2023/10/23 02:15:58;;;;;;;0.30;0.30;;;;;;;7.42;100.00;101145.91;5113356;28;20493;-57
2023/10/23 02:18:24;;;;;;;0.30;0.30;;;;;;;7.52;100.00;101148.09;5113078;28;20020;-57
2023/10/23 02:20:50;;;;;;;0.30;0.30;;;;;;;7.36;100.00;101153.31;5112560;28;20386;-57
2023/10/23 02:23:16;;;;;;;0.22;0.22;;;;;;;7.39;100.00;101158.59;5112830;28;20020;-57
2023/10/23 02:25:41;;;;;;;0.20;0.20;;;;;;;7.43;100.00;101155.38;5113209;28;20167;-57
2023/10/23 02:28:06;;;;;;;0.30;0.30;;;;;;;7.46;100.00;101159.75;5112275;28;20054;-56
2023/10/23 02:30:32;;;;;;;0.30;0.30;;;;;;;7.42;100.00;101163.84;5112732;28;20030;-57
2023/10/23 02:32:57;;;;;;;0.30;0.30;;;;;;;7.45;100.00;101166.59;5112601;28;20053;-57
2023/10/23 02:35:23;;;;;;;0.32;0.32;;;;;;;7.47;100.00;101172.66;5113192;28;20107;-57
2023/10/23 02:37:49;;;;;;;0.30;0.30;;;;;;;7.41;100.00;101168.13;5113205;28;20486;-57
2023/10/23 02:40:15;;;;;;;0.30;0.30;;;;;;;7.46;100.00;101167.44;5111998;28;20047;-57
2023/10/23 02:42:40;;;;;;;0.30;0.30;;;;;;;7.51;100.00;101164.28;5112904;28;20034;-57
2023/10/23 02:45:07;;;;;;;0.30;0.30;;;;;;;7.47;100.00;101175.22;5113211;28;20024;-57
2023/10/23 02:47:32;;;;;;;0.30;0.30;;;;;;;7.47;100.00;101172.66;5112085;28;20024;-57
2023/10/23 02:49:57;;;;;;;0.30;0.30;;;;;;;7.44;100.00;101172.50;5112801;28;20552;-57
2023/10/23 02:52:23;;;;;;;0.30;0.30;;;;;;;7.50;100.00;101167.69;5112704;28;20111;-57
2023/10/23 02:54:50;;;;;;;0.20;0.20;;;;;;;7.46;100.00;101170.88;5112277;28;20027;-57
2023/10/23 02:57:15;;;;;;;0.30;0.30;;;;;;;7.44;100.00;101167.38;5115385;28;20379;-57
2023/10/23 02:59:46;;;;;;;0.30;0.30;;;;;;;7.45;100.00;101164.03;5116515;28;20024;-57
2023/10/23 03:02:12;;;;;;;0.30;0.30;;;;;;;7.40;100.00;101171.47;5115538;28;20077;-57
2023/10/23 03:04:37;;;;;;;0.30;0.30;;;;;;;7.38;100.00;101164.53;5116823;28;20028;-57
2023/10/23 03:07:02;;;;;;;0.40;0.40;;;;;;;7.22;100.00;101162.91;5116576;28;20098;-57
2023/10/23 03:09:28;;;;;;;0.20;0.20;;;;;;;7.26;100.00;101172.50;5115343;28;20024;-57
2023/10/23 03:11:53;;;;;;;0.30;0.30;;;;;;;7.28;100.00;101170.00;5116208;28;20027;-57
2023/10/23 03:14:18;;;;;;;0.30;0.30;;;;;;;7.27;100.00;101170.81;5116201;28;20122;-57
2023/10/23 03:16:43;;;;;;;0.30;0.30;;;;;;;7.22;100.00;101161.22;5115616;28;20022;-57
2023/10/23 03:19:09;;;;;;;0.30;0.30;;;;;;;7.19;100.00;101170.44;5116165;28;20398;-57
2023/10/23 03:21:34;;;;;;;0.30;0.30;;;;;;;7.13;100.00;101165.00;5115947;28;20039;-57
2023/10/23 03:23:59;;;;;;;0.30;0.30;;;;;;;7.08;100.00;101167.38;5115363;28;20080;-57
2023/10/23 03:26:25;;;;;;;0.30;0.30;;;;;;;7.01;100.00;101175.56;5115674;28;20030;-57
2023/10/23 03:28:50;;;;;;;0.35;0.35;;;;;;;6.91;100.00;101166.53;5116199;28;20024;-57
2023/10/23 03:31:15;;;;;;;0.30;0.30;;;;;;;6.80;100.00;101171.13;5115160;28;20023;-57
2023/10/23 03:33:41;;;;;;;0.30;0.30;;;;;;;6.69;100.00;101175.72;5115918;28;20116;-57
2023/10/23 03:36:06;;;;;;;0.30;0.30;;;;;;;6.64;100.00;101174.59;5116313;28;20031;-57
2023/10/23 03:38:32;;;;;;;0.30;0.30;;;;;;;6.52;100.00;101173.97;5114744;28;20020;-57
2023/10/23 03:40:58;;;;;;;0.30;0.30;;;;;;;6.67;100.00;101176.44;5115685;28;20039;-58
2023/10/23 03:43:24;;;;;;;0.28;0.28;;;;;;;6.38;100.00;101175.84;5114845;28;20041;-57
2023/10/23 03:45:49;;;;;;;0.30;0.30;;;;;;;6.46;100.00;101174.53;5116017;28;20024;-57
2023/10/23 03:48:15;;;;;;;0.30;0.30;;;;;;;6.36;100.00;101172.31;5115696;28;20020;-57
2023/10/23 03:50:40;;;;;;;0.30;0.30;;;;;;;6.33;100.00;101184.97;5115027;28;20024;-57
2023/10/23 03:53:05;;;;;;;0.30;0.30;;;;;;;6.21;100.00;101177.47;5115568;28;20413;-57
2023/10/23 03:55:35;;;;;;;0.20;0.20;;;;;;;6.22;100.00;101185.28;5115415;28;20107;-57
2023/10/23 03:58:00;;;;;;;0.30;0.30;;;;;;;6.19;100.00;101182.53;5114887;28;20016;-57
2023/10/23 04:00:25;;;;;;;0.30;0.30;;;;;;;6.13;100.00;101177.09;5115209;28;20026;-57
2023/10/23 04:02:52;;;;;;;0.30;0.30;;;;;;;6.16;100.00;101184.94;5115537;28;20041;-57
2023/10/23 04:05:17;;;;;;;0.30;0.30;;;;;;;6.09;100.00;101183.75;5114522;28;20019;-57
2023/10/23 04:07:42;;;;;;;0.30;0.30;;;;;;;6.03;100.00;101187.63;5114891;28;20443;-57
2023/10/23 04:10:08;;;;;;;0.20;0.20;;;;;;;6.04;100.00;101190.28;5115211;28;20427;-57
2023/10/23 04:12:34;;;;;;;0.30;0.30;;;;;;;6.01;100.00;101189.25;5114484;28;20031;-57
2023/10/23 04:14:59;;;;;;;0.30;0.30;;;;;;;5.99;100.00;101196.84;5115328;28;20020;-57
2023/10/23 04:17:24;;;;;;;0.30;0.30;;;;;;;5.93;100.00;101194.78;5114785;28;20072;-57
2023/10/23 04:19:49;;;;;;;0.20;0.20;;;;;;;5.89;100.00;101185.19;5114317;28;20051;-57
2023/10/23 04:22:15;;;;;;;0.38;0.38;;;;;;;5.85;100.00;101180.72;5114599;28;20028;-57
2023/10/23 04:24:40;;;;;;;0.30;0.30;;;;;;;5.82;100.00;101184.78;5114976;28;20027;-57
2023/10/23 04:27:05;;;;;;;0.30;0.30;;;;;;;5.83;100.00;101182.28;5114368;28;20102;-57
2023/10/23 04:29:31;;;;;;;0.30;0.30;;;;;;;5.83;100.00;101184.84;5114754;28;20044;-57
2023/10/23 04:31:56;;;;;;;0.40;0.40;;;;;;;5.76;100.00;101188.75;5114903;28;20375;-57
2023/10/23 04:34:21;;;;;;;0.35;0.35;;;;;;;5.87;100.00;101193.56;5113790;28;20030;-57
2023/10/23 04:36:47;;;;;;;0.30;0.30;;;;;;;5.74;100.00;101194.59;5114899;28;20030;-57
2023/10/23 04:39:12;;;;;;;0.30;0.30;;;;;;;5.70;100.00;101202.88;5114339;28;20023;-57
2023/10/23 04:41:37;;;;;;;0.30;0.30;;;;;;;5.70;100.00;101198.66;5113781;28;20047;-57
2023/10/23 04:44:03;;;;;;;0.30;0.30;;;;;;;5.72;100.00;101201.28;5114843;28;20371;-57
2023/10/23 04:46:29;;;;;;;0.30;0.30;;;;;;;5.73;100.00;101200.50;5114392;28;20089;-57
2023/10/23 04:48:54;;;;;;;0.30;0.30;;;;;;;5.77;100.00;101194.75;5113981;28;20054;-57
2023/10/23 04:51:19;;;;;;;0.30;0.30;;;;;;;5.76;100.00;101198.13;5114166;28;20071;-57
2023/10/23 04:53:44;;;;;;;0.40;0.40;;;;;;;5.80;100.00;101201.69;5113793;28;20047;-57
2023/10/23 04:56:10;;;;;;;0.35;0.35;;;;;;;5.73;100.00;101195.38;5114249;28;20031;-57
2023/10/23 04:58:35;;;;;;;0.30;0.30;;;;;;;5.82;100.00;101193.31;5114232;28;20027;-57
2023/10/23 05:01:00;;;;;;;0.40;0.40;;;;;;;5.78;100.00;101191.38;5113728;28;20034;-57
2023/10/23 05:03:25;;;;;;;0.30;0.30;;;;;;;5.79;100.00;101188.03;5114009;28;20026;-57
2023/10/23 05:05:51;;;;;;;0.40;0.40;;;;;;;5.82;100.00;101177.97;5114233;28;20046;-57
2023/10/23 05:08:16;;;;;;;0.30;0.30;;;;;;;5.64;100.00;101177.84;5113264;28;20016;-57
2023/10/23 05:10:42;;;;;;;0.30;0.30;;;;;;;5.64;100.00;101182.09;5114110;28;20076;-57
2023/10/23 05:13:07;;;;;;;0.20;0.20;;;;;;;5.59;100.00;101186.94;5114006;28;20054;-57
2023/10/23 05:15:32;;;;;;;0.20;0.20;;;;;;;5.63;100.00;101193.09;5113071;28;20024;-57
2023/10/23 05:17:58;;;;;;;0.30;0.30;;;;;;;5.60;100.00;101193.81;5113982;28;20455;-57
2023/10/23 05:20:24;;;;;;;0.30;0.30;;;;;;;5.62;100.00;101189.69;5112741;28;20028;-57
2023/10/23 05:22:49;;;;;;;0.30;0.30;;;;;;;5.59;100.00;101184.38;5113072;28;20028;-57
2023/10/23 05:25:15;;;;;;;0.35;0.35;;;;;;;5.59;100.00;101189.50;5113478;28;20364;-57
2023/10/23 05:27:40;;;;;;;0.40;0.40;;;;;;;5.69;100.00;101183.22;5113951;28;20042;-57
2023/10/23 05:30:06;;;;;;;0.30;0.30;;;;;;;5.68;100.00;101186.56;5113202;28;20016;-57
2023/10/23 05:32:35;;;;;;;0.30;0.30;;;;;;;5.50;100.00;101189.88;5113613;28;20028;-57
2023/10/23 05:35:01;;;;;;;0.28;0.28;;;;;;;5.48;100.00;101185.50;5113748;28;20475;-57
2023/10/23 05:37:27;;;;;;;0.30;0.30;;;;;;;5.37;100.00;101177.19;5112646;28;20024;-57
2023/10/23 05:39:52;;;;;;;0.32;0.32;;;;;;;5.47;100.00;101179.47;5113541;28;20024;-58
2023/10/23 05:42:17;;;;;;;0.30;0.30;;;;;;;5.41;100.00;101179.13;5113160;28;20048;-57
2023/10/23 05:44:43;;;;;;;0.30;0.30;;;;;;;5.39;100.00;101180.72;5112924;28;20027;-57
2023/10/23 05:47:08;;;;;;;0.30;0.30;;;;;;;5.29;100.00;101181.88;5113658;28;20023;-57
2023/10/23 05:49:34;;;;;;;0.30;0.30;;;;;;;5.21;100.00;101180.59;5113193;28;20027;-57
2023/10/23 05:51:59;;;;;;;0.20;0.20;;;;;;;5.17;100.00;101179.53;5112643;28;20031;-57
2023/10/23 05:54:25;;;;;;;0.38;0.38;;;;;;;5.16;100.00;101193.09;5113469;28;20032;-57
2023/10/23 05:56:50;;;;;;;0.30;0.30;;;;;;;5.18;100.00;101186.41;5113332;28;20028;-57
2023/10/23 05:59:15;;;;;;;0.30;0.30;;;;;;;5.24;100.00;101196.06;5112580;28;20051;-57
2023/10/23 06:01:41;;;;;;;0.30;0.30;;;;;;;5.19;100.00;101193.28;5113329;28;20031;-57
2023/10/23 06:04:06;;;;;;;0.22;0.22;;;;;;;5.14;100.00;101193.78;5112629;28;20114;-57
2023/10/23 06:06:31;;;;;;;0.30;0.30;;;;;;;5.18;100.00;101181.28;5113096;28;20024;-57
2023/10/23 06:08:57;;;;;;;0.30;0.30;;;;;;;5.05;100.00;101187.38;5113311;28;20019;-57
2023/10/23 06:11:23;;;;;;;0.30;0.30;;;;;;;5.04;100.00;101189.84;5112454;28;20427;-57
2023/10/23 06:13:49;;;;;;;0.40;0.40;;;;;;;5.04;100.00;101187.28;5113238;28;20089;-58
2023/10/23 06:16:14;;;;;;;0.30;0.30;;;;;;;5.07;100.00;101196.03;5113046;28;20028;-57
2023/10/23 06:18:39;;;;;;;0.30;0.30;;;;;;;5.10;100.00;101197.88;5112494;28;20024;-56
2023/10/23 06:21:06;;;;;;;0.30;0.30;;;;;;;5.14;100.00;101189.59;5113205;28;20024;-56
2023/10/23 06:23:33;;;;;;;0.30;0.30;;;;;;;5.10;100.00;101197.88;5112879;28;20024;-56
2023/10/23 06:25:59;;;;;;;0.30;0.30;;;;;;;5.11;100.00;101189.38;5112468;28;20407;-57
2023/10/23 06:28:25;;;;;;;0.30;0.30;;;;;;;5.08;100.00;101192.66;5112801;28;20055;-57
2023/10/23 06:30:50;;;;;;;0.30;0.30;;;;;;;5.06;100.00;101195.91;5113978;28;20114;-57
2023/10/23 06:33:16;;;;;;;0.30;0.30;;;;;;;5.06;100.00;101195.91;5116104;28;20098;-57
2023/10/23 06:35:41;;;;;;;0.30;0.30;;;;;;;5.09;100.00;101191.84;5117135;28;20030;-57
2023/10/23 06:38:06;;;;;;;0.30;0.30;;;;;;;5.01;100.00;101202.41;5117018;28;20185;-57
2023/10/23 06:40:31;;;;;;;0.30;0.30;;;;;;;4.94;100.00;101196.09;5115964;28;20050;-56
2023/10/23 06:42:57;;;;;;;0.30;0.30;;;;;;;4.98;100.00;101197.16;5117038;28;20098;-56
2023/10/23 06:45:22;;;;;;;0.30;0.30;;;;;;;5.03;100.00;101195.75;5116729;28;20091;-57
2023/10/23 06:47:49;;;;;;;0.30;0.30;;;;;;;5.10;100.00;101206.41;5116246;28;20078;-57
2023/10/23 06:50:15;;;;;;;0.30;0.30;;;;;;;5.14;100.00;101204.00;5116704;28;20432;-57
2023/10/23 06:52:41;;;;;;;0.35;0.35;;;;;;;5.25;100.00;101200.41;5116829;28;20532;-57
2023/10/23 06:55:06;;;;;;;0.30;0.30;;;;;;;5.28;100.00;101188.69;5116337;28;20043;-56
2023/10/23 06:57:32;;;;;;;0.40;0.40;;;;;;;5.26;100.00;101190.25;5116606;28;20012;-56
2023/10/23 06:59:57;;;;;;;0.30;0.30;;;;;;;5.35;100.00;101191.59;5116814;28;20100;-57
2023/10/23 07:02:22;;;;;;;0.40;0.40;;;;;;;5.45;100.00;101186.19;5115445;28;20023;-56
2023/10/23 07:04:48;;;;;;;0.30;0.30;;;;;;;5.55;100.00;101191.03;5116589;28;20027;-57
2023/10/23 07:07:13;;;;;;;0.30;0.30;;;;;;;5.58;100.00;101193.75;5115812;28;20016;-56
2023/10/23 07:09:39;;;;;;;0.40;0.40;;;;;;;5.67;100.00;101197.59;5116123;28;20034;-56
2023/10/23 07:12:05;;;;;;;0.30;0.30;;;;;;;5.68;100.00;101201.91;5116675;28;20020;-56
2023/10/23 07:14:30;;;;;;;0.30;0.30;;;;;;;5.75;100.00;101191.25;5115376;28;20074;-56
2023/10/23 07:16:55;;;;;;;0.30;0.30;;;;;;;5.81;100.00;101189.03;5116496;28;20015;-57
2023/10/23 07:19:20;;;;;;;0.30;0.30;;;;;;;5.96;100.00;101188.09;5116126;28;20020;-56
2023/10/23 07:21:46;;;;;;;0.30;0.30;;;;;;;5.98;100.00;101186.47;5115569;28;20028;-57
2023/10/23 07:24:11;;;;;;;0.20;0.20;;;;;;;6.03;100.00;101185.06;5115969;28;20088;-56
2023/10/23 07:26:37;;;;;;;0.30;0.30;;;;;;;6.10;100.00;101193.16;5116410;28;20051;-56
2023/10/23 07:29:02;;;;;;;0.20;0.20;;;;;;;6.19;100.00;101190.22;5115436;28;20016;-56
2023/10/23 07:31:27;;;;;;;0.30;0.30;;;;;;;6.22;100.00;101184.38;5115817;28;20059;-56
2023/10/23 07:33:53;;;;;;;0.30;0.30;;;;;;;6.23;100.00;101184.44;5116019;28;20012;-56
2023/10/23 07:36:18;;;;;;;0.30;0.30;;;;;;;6.30;100.00;101177.09;5115012;28;20047;-56
2023/10/23 07:38:44;;;;;;;0.30;0.30;;;;;;;6.36;100.00;101172.31;5116225;28;20028;-56
2023/10/23 07:41:11;;;;;;;0.25;0.25;;;;;;;6.42;100.00;101182.88;5115500;28;20062;-56
2023/10/23 07:43:36;;;;;;;0.30;0.30;;;;;;;6.60;100.00;101182.94;5114113;28;20020;-56
2023/10/23 07:46:06;;;;;;;0.30;0.30;;;;;;;6.67;100.00;101189.25;5115898;28;20031;-56
2023/10/23 07:48:32;;;;;;;0.20;0.20;;;;;;;6.77;100.00;101195.72;5115566;28;20028;-56
2023/10/23 07:50:58;;;;;;;0.30;0.30;;;;;;;6.86;100.00;101198.75;5114987;28;20035;-56
2023/10/23 07:53:24;;;;;;;0.30;0.30;;;;;;;6.96;100.00;101195.84;5115502;28;20024;-56
2023/10/23 07:55:49;;;;;;;0.30;0.30;;;;;;;7.04;100.00;101191.09;5115771;28;20023;-56
2023/10/23 07:58:15;;;;;;;0.30;0.30;;;;;;;7.09;100.00;101200.75;5114678;28;20535;-57
2023/10/23 08:00:41;;;;;;;0.30;0.30;;;;;;;7.16;100.00;101199.38;5115786;28;20019;-57
2023/10/23 08:03:06;;;;;;;0.30;0.30;;;;;;;7.22;100.00;101199.69;5115542;28;20051;-57
2023/10/23 08:05:31;;;;;;;0.30;0.30;;;;;;;7.33;100.00;101194.19;5114235;28;20023;-57
2023/10/23 08:07:57;;;;;;;0.30;0.30;;;;;;;7.44;100.00;101197.25;5115336;28;20020;-57
2023/10/23 08:10:22;;;;;;;0.20;0.20;;;;;;;7.54;100.00;101194.31;5115155;28;20057;-57
2023/10/23 08:12:47;;;;;;;0.22;0.22;;;;;;;7.60;100.00;101183.50;5114851;28;20031;-57
2023/10/23 08:15:14;;;;;;;0.30;0.30;;;;;;;7.69;100.00;101189.06;5115030;28;20035;-57
2023/10/23 08:17:39;;;;;;;0.28;0.28;;;;;;;7.88;100.00;101181.41;5114511;28;20027;-57
2023/10/23 08:20:05;;;;;;;0.30;0.30;;;;;;;7.96;100.00;101178.31;5114984;28;20368;-57
2023/10/23 08:22:31;;;;;;;0.30;0.30;;;;;;;7.99;100.00;101168.16;5114818;28;20058;-57
2023/10/23 08:24:56;;;;;;;0.30;0.30;;;;;;;8.11;100.00;101170.41;5114348;28;20900;-57
2023/10/23 08:27:21;;;;;;;0.30;0.30;;;;;;;8.22;100.00;101172.66;5114834;28;20080;-57
2023/10/23 08:29:47;;;;;;;0.30;0.30;;;;;;;8.45;100.00;101175.34;5114984;28;20519;-57
2023/10/23 08:32:12;;;;;;;0.30;0.30;;;;;;;8.53;100.00;101180.84;5113766;28;20028;-57
2023/10/23 08:34:38;;;;;;;0.30;0.30;;;;;;;8.56;100.00;101181.00;5114693;28;20032;-57
2023/10/23 08:37:03;;;;;;;0.20;0.20;;;;;;;8.61;100.00;101182.09;5114958;28;20027;-57
2023/10/23 08:39:29;;;;;;;0.30;0.30;;;;;;;8.71;100.00;101183.34;5113658;28;20065;-57
2023/10/23 08:41:54;;;;;;;0.30;0.30;;;;;;;8.80;100.00;101188.00;5114472;28;20079;-58
2023/10/23 08:44:20;;;;;;;0.30;0.30;;;;;;;8.90;100.00;101190.13;5114230;28;20067;-57
2023/10/23 08:46:46;;;;;;;0.30;0.30;;;;;;;9.01;100.00;101190.56;5113752;28;20027;-57
2023/10/23 08:49:11;;;;;;;0.22;0.22;;;;;;;9.32;100.00;101194.41;5114168;28;20023;-57
2023/10/23 08:51:41;;;;;;;0.20;0.20;;;;;;;9.30;100.00;101196.91;5114636;28;20425;-57
2023/10/23 08:54:18;;;;;;;0.20;0.20;;;;;;;9.34;100.00;101197.91;5113472;28;20424;-57
2023/10/23 08:56:44;;;;;;;0.20;0.20;;;;;;;9.33;100.00;101191.00;5114534;28;20012;-57
2023/10/23 08:59:11;;;;;;;0.30;0.30;;;;;;;9.61;100.00;101192.13;5114407;28;20159;-57
2023/10/23 09:01:36;;;;;;;0.30;0.30;;;;;;;9.66;100.00;101191.47;5113512;28;20035;-57
2023/10/23 09:04:02;;;;;;;0.20;0.20;;;;;;;9.87;100.00;101190.53;5114088;28;20054;-57
2023/10/23 09:06:28;;;;;;;0.20;0.20;;;;;;;9.94;100.00;101182.25;5113838;28;20375;-57
2023/10/23 09:08:53;;;;;;;0.20;0.20;;;;;;;10.11;100.00;101175.13;5113361;28;20034;-57
2023/10/23 09:11:20;;;;;;;0.20;0.20;;;;;;;10.21;100.00;101174.66;5113934;28;20031;-57
2023/10/23 09:13:45;;;;;;;0.20;0.20;;;;;;;10.31;100.00;101177.56;5114279;28;20038;-57
2023/10/23 09:16:11;;;;;;;0.20;0.20;;;;;;;10.53;100.00;101177.53;5112931;28;20024;-57
2023/10/23 09:18:51;;;;;;;0.20;0.20;;;;;;;10.56;100.00;101178.44;5113844;28;20023;-57
2023/10/23 09:21:17;;;;;;;0.10;0.10;;;;;;;10.70;100.00;101172.97;5112868;28;20027;-58
2023/10/23 09:23:50;;;;;;;0.20;0.20;;;;;;;10.87;100.00;101176.09;5113848;28;20020;-57
2023/10/23 09:26:15;;;;;;;0.20;0.20;;;;;;;10.93;100.00;101164.25;5113615;28;20027;-57
2023/10/23 09:28:41;;;;;;;0.20;0.20;;;;;;;11.10;100.00;101163.06;5113022;28;20134;-57
2023/10/23 09:31:06;;;;;;;0.20;0.20;;;;;;;11.30;100.00;101162.88;5113742;28;20020;-57
2023/10/23 09:33:32;;;;;;;0.20;0.20;;;;;;;11.53;100.00;101164.44;5113551;28;20015;-57
2023/10/23 09:36:00;;;;;;;0.20;0.20;;;;;;;11.93;100.00;101163.88;5112999;28;20519;-57
2023/10/23 09:38:26;;;;;;;;;;;;;;;12.18;100.00;101168.94;5113988;28;20142;-57
2023/10/23 09:40:55;;;;;;;0.20;0.20;;;;;;;12.12;100.00;101160.16;5113608;28;19915;-57
2023/10/23 09:43:22;;;;;;;0.17;0.17;;;;;;;12.07;100.00;101152.28;5112475;28;20035;-57
2023/10/23 09:45:48;;;;;;;0.20;0.20;;;;;;;12.32;100.00;101158.13;5113787;28;20032;-57
2023/10/23 09:48:18;;;;;;;0.20;0.20;;;;;;;12.51;100.00;101150.03;5113257;28;20028;-57
2023/10/23 09:50:48;;;;;;;0.10;0.10;;;;;;;12.29;100.00;101150.28;5112633;28;20497;-57
2023/10/23 09:53:15;;;;;;;0.17;0.17;;;;;;;12.41;100.00;101153.22;5113191;28;20374;-57
2023/10/23 09:55:44;;;;;;;0.20;0.20;;;;;;;12.47;100.00;101150.78;5113456;28;20019;-57
2023/10/23 09:58:16;;;;;;;0.20;0.20;;;;;;;12.41;100.00;101148.03;5112682;28;20069;-57
2023/10/23 10:00:46;;;;;;;0.20;0.20;;;;;;;12.33;100.00;101159.84;5113617;28;20165;-57
2023/10/23 10:03:12;;;;;;;0.15;0.15;;;;;;;12.52;100.00;101148.31;5112077;28;20020;-57
2023/10/23 10:06:00;;;;;;;0.13;0.13;;;;;;;12.41;100.00;101152.31;5112890;28;20024;-57
2023/10/23 10:08:29;;;;;;;;;;;;;;;12.68;100.00;101147.88;5113637;28;20027;-57
2023/10/23 10:10:55;;;;;;;0.20;0.20;;;;;;;12.44;100.00;101147.25;5112735;28;19990;-57
2023/10/23 10:13:21;;;;;;;0.10;0.10;;;;;;;12.57;100.00;101154.47;5113194;28;20054;-57
2023/10/23 10:15:48;;;;;;;0.17;0.17;;;;;;;12.46;100.00;101153.31;5113154;28;20390;-57
2023/10/23 10:18:16;;;;;;;0.20;0.20;;;;;;;12.50;100.00;101145.69;5112320;28;20027;-57
2023/10/23 10:20:45;;;;;;;0.20;0.20;;;;;;;12.64;100.00;101143.47;5113227;28;20032;-54
2023/10/23 10:23:13;;;;;;;0.10;0.10;;;;;;;12.87;100.00;101137.13;5112771;28;20482;-56
2023/10/23 10:25:41;;;;;;;0.10;0.10;;;;;;;12.94;100.00;101136.44;5112385;28;20466;-56
2023/10/23 10:28:07;;;;;;;0.20;0.20;;;;;;;13.11;100.00;101137.72;5113210;28;20045;-57
2023/10/23 10:30:49;;;;;;;0.20;0.20;;;;;;;12.83;100.00;101136.16;5112917;28;20065;-56
2023/10/23 10:33:22;;;;;;;0.10;0.10;;;;;;;12.79;100.00;101127.44;5112130;28;20371;-56
2023/10/23 10:36:00;;;;;;;0.20;0.20;;;;;;;12.83;100.00;101121.53;5113291;28;20116;-55
2023/10/23 10:38:31;;;;;;;0.10;0.10;;;;;;;12.82;100.00;101122.38;5111921;28;20464;-55
2023/10/23 10:41:03;;;;;;;0.10;0.10;;;;;;;12.87;100.00;101124.19;5112927;28;20055;-56
2023/10/23 10:43:39;;;;;;;0.10;0.10;;;;;;;13.07;100.00;101117.78;5112870;28;20024;-56
2023/10/23 10:46:25;;;;;;;0.20;0.20;;;;;;;13.17;100.00;101113.72;5112245;28;20030;-56
2023/10/23 10:48:52;;;;;;;0.20;0.20;;;;;;;13.42;100.00;101109.97;5113114;28;20077;-54
2023/10/23 10:51:23;;;;;;;0.20;0.20;;;;;;;13.34;100.00;101104.59;5112800;28;20020;-56
2023/10/23 10:53:58;;;;;;;0.20;0.20;;;;;;;13.40;100.00;101108.19;5112163;28;20027;-57
2023/10/23 10:56:23;;;;;;;0.20;0.20;;;;;;;13.59;100.00;101096.53;5112836;28;20043;-57
2023/10/23 10:58:48;;;;;;;0.10;0.10;;;;;;;13.70;100.00;101089.88;5113009;28;20453;-56
2023/10/23 11:01:14;;;;;;;0.20;0.20;;;;;;;13.54;100.00;101085.19;5111986;28;20023;-57
2023/10/23 11:03:41;;;;;;;0.10;0.10;;;;;;;13.36;100.00;101081.31;5113154;28;20024;-57
2023/10/23 11:06:07;;;;;;;0.10;0.10;;;;;;;13.35;100.00;101077.03;5112806;28;20052;-57
2023/10/23 11:08:32;;;;;;;0.10;0.10;;;;;;;13.36;100.00;101078.75;5111576;28;20070;-55
2023/10/23 11:11:01;;;;;;;0.10;0.10;;;;;;;13.29;100.00;101069.09;5112676;28;20020;-57
2023/10/23 11:13:27;;;;;;;0.10;0.10;;;;;;;13.23;100.00;101062.06;5111825;28;20023;-57
2023/10/23 11:15:55;;;;;;;0.20;0.20;;;;;;;13.28;100.00;101057.00;5112643;28;20111;-57
2023/10/23 11:18:20;;;;;;;0.20;0.20;;;;;;;13.32;100.00;101054.53;5113897;28;20382;-56
2023/10/23 11:20:46;;;;;;;0.20;0.20;;;;;;;13.48;100.00;101053.16;5115707;28;20761;-57